createdAt,value
2018-12-02T00:00:16.594Z,4.36
2018-12-02T00:01:16.626Z,4.34
2018-12-02T00:02:16.892Z,4.34
2018-12-02T00:03:17.155Z,4.36
2018-12-02T00:04:16.414Z,4.37
2018-12-02T00:05:16.686Z,4.37
2018-12-02T00:06:16.966Z,4.36
2018-12-02T00:07:16.245Z,4.36
2018-12-02T00:08:16.513Z,4.31
2018-12-02T00:09:16.779Z,4.33
2018-12-02T00:10:17.044Z,4.36
2018-12-02T00:11:17.097Z,4.33
2018-12-02T00:12:16.367Z,4.33
2018-12-02T00:13:16.628Z,4.31
2018-12-02T00:14:16.891Z,4.34
2018-12-02T00:15:17.167Z,4.38
2018-12-02T00:16:16.434Z,4.37
2018-12-02T00:17:16.702Z,4.38
2018-12-02T00:18:16.965Z,4.36
2018-12-02T00:19:16.222Z,4.36
2018-12-02T00:20:16.482Z,4.34
2018-12-02T00:21:16.527Z,4.37
2018-12-02T00:22:16.794Z,4.34
2018-12-02T00:23:17.057Z,4.33
2018-12-02T00:24:16.317Z,4.28
2018-12-02T00:25:16.574Z,4.30
2018-12-02T00:26:16.843Z,4.33
2018-12-02T00:27:17.108Z,4.33
2018-12-02T00:28:16.362Z,4.28
2018-12-02T00:29:16.632Z,4.31
2018-12-02T00:30:16.900Z,4.40
2018-12-02T00:31:16.991Z,4.40
2018-12-02T00:32:16.269Z,4.40
2018-12-02T00:33:16.523Z,4.40
2018-12-02T00:34:16.787Z,4.38
2018-12-02T00:35:17.074Z,4.38
2018-12-02T00:36:16.363Z,4.40
2018-12-02T00:37:16.644Z,4.37
2018-12-02T00:38:16.909Z,4.41
2018-12-02T00:39:17.181Z,4.40
2018-12-02T00:40:16.455Z,4.43
2018-12-02T00:41:16.499Z,4.44
2018-12-02T00:42:16.754Z,4.51
2018-12-02T00:43:17.014Z,4.48
2018-12-02T00:44:16.292Z,4.50
2018-12-02T00:45:16.559Z,4.48
2018-12-02T00:46:16.817Z,4.50
2018-12-02T00:47:17.081Z,4.50
2018-12-02T00:48:16.342Z,4.50
2018-12-02T00:49:16.598Z,4.46
2018-12-02T00:50:16.866Z,4.50
2018-12-02T00:51:16.918Z,4.53
2018-12-02T00:52:17.187Z,4.54
2018-12-02T00:53:16.450Z,4.54
2018-12-02T00:54:16.720Z,4.54
2018-12-02T00:55:16.985Z,4.57
2018-12-02T00:56:16.250Z,4.55
2018-12-02T00:57:16.526Z,4.57
2018-12-02T00:58:16.786Z,4.57
2018-12-02T00:59:17.051Z,4.58
2018-12-02T01:00:16.351Z,4.58
2018-12-02T01:01:16.370Z,4.58
2018-12-02T01:02:16.652Z,4.61
2018-12-02T01:03:16.912Z,4.64
2018-12-02T01:04:17.210Z,4.60
2018-12-02T01:05:16.482Z,4.61
2018-12-02T01:06:16.737Z,4.64
2018-12-02T01:07:17.013Z,4.63
2018-12-02T01:08:16.281Z,4.72
2018-12-02T01:09:16.598Z,4.72
2018-12-02T01:10:16.876Z,4.74
2018-12-02T01:11:16.912Z,4.69
2018-12-02T01:12:17.175Z,4.74
2018-12-02T01:13:16.432Z,4.74
2018-12-02T01:14:16.692Z,4.75
2018-12-02T01:15:16.975Z,4.71
2018-12-02T01:16:16.248Z,4.75
2018-12-02T01:17:16.513Z,4.75
2018-12-02T01:18:16.775Z,4.76
2018-12-02T01:19:17.038Z,4.76
2018-12-02T01:20:16.428Z,4.78
2018-12-02T01:21:16.509Z,4.81
2018-12-02T01:22:16.769Z,4.76
2018-12-02T01:23:17.034Z,4.76
2018-12-02T01:24:16.296Z,4.74
2018-12-02T01:25:16.563Z,4.72
2018-12-02T01:26:16.856Z,4.74
2018-12-02T01:27:17.128Z,4.72
2018-12-02T01:28:16.392Z,4.68
2018-12-02T01:29:16.662Z,4.78
2018-12-02T01:30:16.965Z,4.79
2018-12-02T01:31:16.975Z,4.78
2018-12-02T01:32:16.245Z,4.75
2018-12-02T01:33:16.514Z,4.78
2018-12-02T01:34:16.783Z,4.78
2018-12-02T01:35:17.063Z,4.78
2018-12-02T01:36:16.331Z,4.79
2018-12-02T01:37:16.600Z,4.79
2018-12-02T01:38:16.855Z,4.79
2018-12-02T01:39:17.114Z,4.82
2018-12-02T01:40:16.385Z,4.84
2018-12-02T01:41:16.462Z,4.89
2018-12-02T01:42:16.769Z,4.91
2018-12-02T01:43:17.026Z,4.85
2018-12-02T01:44:16.295Z,4.91
2018-12-02T01:45:16.554Z,4.92
2018-12-02T01:46:16.822Z,4.89
2018-12-02T01:47:17.490Z,4.91
2018-12-02T01:48:16.753Z,4.89
2018-12-02T01:49:17.393Z,4.88
2018-12-02T01:50:16.663Z,4.85
2018-12-02T01:51:16.737Z,4.85
2018-12-02T01:52:17.007Z,4.84
2018-12-02T01:53:16.271Z,4.84
2018-12-02T01:54:16.528Z,4.85
2018-12-02T01:55:16.796Z,4.98
2018-12-02T01:56:17.064Z,4.99
2018-12-02T01:57:16.330Z,4.98
2018-12-02T01:58:16.594Z,4.93
2018-12-02T01:59:16.867Z,4.92
2018-12-02T02:00:17.135Z,4.95
2018-12-02T02:01:17.175Z,4.96
2018-12-02T02:02:16.448Z,4.95
2018-12-02T02:03:16.707Z,5.00
2018-12-02T02:04:16.972Z,4.95
2018-12-02T02:05:16.247Z,4.99
2018-12-02T02:06:16.559Z,5.02
2018-12-02T02:07:16.830Z,5.03
2018-12-02T02:08:16.394Z,5.09
2018-12-02T02:09:16.657Z,5.06
2018-12-02T02:10:16.922Z,5.10
2018-12-02T02:11:16.983Z,5.10
2018-12-02T02:12:16.246Z,5.06
2018-12-02T02:13:16.509Z,5.09
2018-12-02T02:14:16.783Z,5.09
2018-12-02T02:15:17.575Z,5.06
2018-12-02T02:16:17.031Z,5.19
2018-12-02T02:17:16.295Z,5.16
2018-12-02T02:18:16.571Z,5.14
2018-12-02T02:19:16.836Z,5.12
2018-12-02T02:20:17.119Z,5.12
2018-12-02T02:21:17.149Z,5.12
2018-12-02T02:22:16.417Z,5.12
2018-12-02T02:23:16.715Z,5.16
2018-12-02T02:24:16.988Z,5.19
2018-12-02T02:25:16.247Z,5.14
2018-12-02T02:26:16.520Z,5.13
2018-12-02T02:27:16.785Z,5.20
2018-12-02T02:28:17.041Z,5.22
2018-12-02T02:29:16.303Z,5.17
2018-12-02T02:30:16.565Z,5.17
2018-12-02T02:31:16.642Z,5.14
2018-12-02T02:32:16.911Z,5.17
2018-12-02T02:33:17.177Z,5.22
2018-12-02T02:34:16.451Z,5.20
2018-12-02T02:35:16.722Z,5.22
2018-12-02T02:36:16.989Z,5.20
2018-12-02T02:37:16.248Z,5.19
2018-12-02T02:38:16.514Z,5.22
2018-12-02T02:39:16.771Z,5.23
2018-12-02T02:40:17.044Z,5.24
2018-12-02T02:41:17.103Z,5.22
2018-12-02T02:42:16.365Z,5.24
2018-12-02T02:43:16.641Z,5.22
2018-12-02T02:44:16.918Z,5.22
2018-12-02T02:45:17.182Z,5.24
2018-12-02T02:46:16.450Z,5.22
2018-12-02T02:47:16.714Z,5.20
2018-12-02T02:48:16.998Z,5.23
2018-12-02T02:49:16.276Z,5.26
2018-12-02T02:50:16.549Z,5.26
2018-12-02T02:51:16.584Z,5.26
2018-12-02T02:52:16.853Z,5.24
2018-12-02T02:53:17.402Z,5.24
2018-12-02T02:54:16.679Z,5.26
2018-12-02T02:55:16.942Z,5.24
2018-12-02T02:56:16.208Z,5.30
2018-12-02T02:57:16.509Z,5.33
2018-12-02T02:58:16.775Z,5.35
2018-12-02T02:59:17.045Z,5.35
2018-12-02T03:00:16.323Z,5.33
2018-12-02T03:01:16.381Z,5.28
2018-12-02T03:02:16.640Z,5.33
2018-12-02T03:03:16.911Z,5.30
2018-12-02T03:04:17.182Z,5.30
2018-12-02T03:05:16.491Z,5.28
2018-12-02T03:06:16.766Z,5.26
2018-12-02T03:07:17.038Z,5.30
2018-12-02T03:08:16.306Z,5.34
2018-12-02T03:09:16.998Z,5.41
2018-12-02T03:10:16.276Z,5.45
2018-12-02T03:11:16.313Z,5.40
2018-12-02T03:12:16.570Z,5.37
2018-12-02T03:13:16.822Z,5.41
2018-12-02T03:14:17.097Z,5.37
2018-12-02T03:15:16.364Z,5.37
2018-12-02T03:16:16.639Z,5.35
2018-12-02T03:17:16.907Z,5.34
2018-12-02T03:18:17.505Z,5.37
2018-12-02T03:19:16.788Z,5.33
2018-12-02T03:20:17.072Z,5.35
2018-12-02T03:21:17.132Z,5.35
2018-12-02T03:22:16.385Z,5.40
2018-12-02T03:23:16.658Z,5.41
2018-12-02T03:24:16.930Z,5.38
2018-12-02T03:25:17.152Z,5.37
2018-12-02T03:26:16.428Z,5.40
2018-12-02T03:27:16.699Z,5.43
2018-12-02T03:28:16.965Z,5.40
2018-12-02T03:29:16.232Z,5.41
2018-12-02T03:30:16.596Z,5.38
2018-12-02T03:31:16.563Z,5.41
2018-12-02T03:32:16.839Z,5.41
2018-12-02T03:33:17.106Z,5.40
2018-12-02T03:34:16.391Z,5.40
2018-12-02T03:35:16.682Z,5.44
2018-12-02T03:36:16.945Z,5.41
2018-12-02T03:37:16.221Z,5.44
2018-12-02T03:38:16.484Z,5.45
2018-12-02T03:39:16.749Z,5.55
2018-12-02T03:40:17.026Z,5.55
2018-12-02T03:41:17.098Z,5.52
2018-12-02T03:42:16.362Z,5.57
2018-12-02T03:43:16.625Z,5.58
2018-12-02T03:44:16.883Z,5.54
2018-12-02T03:45:17.180Z,5.52
2018-12-02T03:46:16.444Z,5.51
2018-12-02T03:47:16.715Z,5.51
2018-12-02T03:48:16.979Z,5.54
2018-12-02T03:49:16.248Z,5.52
2018-12-02T03:50:17.583Z,5.54
2018-12-02T03:51:16.545Z,5.54
2018-12-02T03:52:16.812Z,5.51
2018-12-02T03:53:17.093Z,5.47
2018-12-02T03:54:16.355Z,5.47
2018-12-02T03:55:16.624Z,5.50
2018-12-02T03:56:16.889Z,5.48
2018-12-02T03:57:17.152Z,5.44
2018-12-02T03:58:16.409Z,5.44
2018-12-02T03:59:16.677Z,5.48
2018-12-02T04:00:16.957Z,5.48
2018-12-02T04:01:17.012Z,5.47
2018-12-02T04:02:16.286Z,5.48
2018-12-02T04:03:16.561Z,5.51
2018-12-02T04:04:16.827Z,5.48
2018-12-02T04:05:17.092Z,5.45
2018-12-02T04:06:16.381Z,5.48
2018-12-02T04:07:16.653Z,5.45
2018-12-02T04:08:16.908Z,5.47
2018-12-02T04:09:17.178Z,5.47
2018-12-02T04:10:16.447Z,5.47
2018-12-02T04:11:16.526Z,5.45
2018-12-02T04:12:16.794Z,5.50
2018-12-02T04:13:17.060Z,5.52
2018-12-02T04:14:16.323Z,5.50
2018-12-02T04:15:16.599Z,5.50
2018-12-02T04:16:16.867Z,5.50
2018-12-02T04:17:17.140Z,5.47
2018-12-02T04:18:16.425Z,5.51
2018-12-02T04:19:16.690Z,5.51
2018-12-02T04:20:16.970Z,5.51
2018-12-02T04:21:17.039Z,5.58
2018-12-02T04:22:16.302Z,5.55
2018-12-02T04:23:16.571Z,5.58
2018-12-02T04:24:16.840Z,5.58
2018-12-02T04:25:17.134Z,5.55
2018-12-02T04:26:16.397Z,5.58
2018-12-02T04:27:16.663Z,5.58
2018-12-02T04:28:16.936Z,5.54
2018-12-02T04:29:17.466Z,5.54
2018-12-02T04:30:16.743Z,5.58
2018-12-02T04:31:16.812Z,5.58
2018-12-02T04:32:17.081Z,5.55
2018-12-02T04:33:16.347Z,5.54
2018-12-02T04:34:16.609Z,5.55
2018-12-02T04:35:16.888Z,5.52
2018-12-02T04:36:17.155Z,5.50
2018-12-02T04:37:16.425Z,5.51
2018-12-02T04:38:16.699Z,5.50
2018-12-02T04:39:16.970Z,5.52
2018-12-02T04:40:16.243Z,5.52
2018-12-02T04:41:16.298Z,5.51
2018-12-02T04:42:16.572Z,5.48
2018-12-02T04:43:16.845Z,5.47
2018-12-02T04:44:17.112Z,5.45
2018-12-02T04:45:16.369Z,5.45
2018-12-02T04:46:16.621Z,5.45
2018-12-02T04:47:16.897Z,5.48
2018-12-02T04:48:17.165Z,5.48
2018-12-02T04:49:16.426Z,5.48
2018-12-02T04:50:16.703Z,5.48
2018-12-02T04:51:16.757Z,5.47
2018-12-02T04:52:17.026Z,5.43
2018-12-02T04:53:16.300Z,5.40
2018-12-02T04:54:16.564Z,5.41
2018-12-02T04:55:16.850Z,5.40
2018-12-02T04:56:17.114Z,5.40
2018-12-02T04:57:16.380Z,5.34
2018-12-02T04:58:16.644Z,5.31
2018-12-02T04:59:16.910Z,5.31
2018-12-02T05:00:17.475Z,5.31
2018-12-02T05:01:16.246Z,5.30
2018-12-02T05:02:16.509Z,5.28
2018-12-02T05:03:16.781Z,5.31
2018-12-02T05:04:17.048Z,5.28
2018-12-02T05:05:16.327Z,5.27
2018-12-02T05:06:16.604Z,5.30
2018-12-02T05:07:16.874Z,5.27
2018-12-02T05:08:17.154Z,5.28
2018-12-02T05:09:16.413Z,5.26
2018-12-02T05:10:16.684Z,5.26
2018-12-02T05:11:16.750Z,5.24
2018-12-02T05:12:17.019Z,5.24
2018-12-02T05:13:16.282Z,5.24
2018-12-02T05:14:16.555Z,5.22
2018-12-02T05:15:16.822Z,5.20
2018-12-02T05:16:17.117Z,5.22
2018-12-02T05:17:16.376Z,5.19
2018-12-02T05:18:16.633Z,5.17
2018-12-02T05:19:16.907Z,5.14
2018-12-02T05:20:17.170Z,5.14
2018-12-02T05:21:16.241Z,5.17
2018-12-02T05:22:16.503Z,5.16
2018-12-02T05:23:16.783Z,5.14
2018-12-02T05:24:17.046Z,5.16
2018-12-02T05:25:17.709Z,5.14
2018-12-02T05:26:16.863Z,5.14
2018-12-02T05:27:17.129Z,5.12
2018-12-02T05:28:16.395Z,5.13
2018-12-02T05:29:16.679Z,5.13
2018-12-02T05:30:16.966Z,5.12
2018-12-02T05:31:17.003Z,5.12
2018-12-02T05:32:16.269Z,5.12
2018-12-02T05:33:16.536Z,5.12
2018-12-02T05:34:16.810Z,5.10
2018-12-02T05:35:17.100Z,5.10
2018-12-02T05:36:16.364Z,5.09
2018-12-02T05:37:16.641Z,5.10
2018-12-02T05:38:16.897Z,5.10
2018-12-02T05:39:17.170Z,5.10
2018-12-02T05:40:16.438Z,5.13
2018-12-02T05:41:16.516Z,5.13
2018-12-02T05:42:16.778Z,5.14
2018-12-02T05:43:17.049Z,5.14
2018-12-02T05:44:16.318Z,5.13
2018-12-02T05:45:16.586Z,5.16
2018-12-02T05:46:16.868Z,5.16
2018-12-02T05:47:17.136Z,5.13
2018-12-02T05:48:16.404Z,5.16
2018-12-02T05:49:16.690Z,5.14
2018-12-02T05:50:16.978Z,5.13
2018-12-02T05:51:16.996Z,5.13
2018-12-02T05:52:16.262Z,5.16
2018-12-02T05:53:16.557Z,5.16
2018-12-02T05:54:16.815Z,5.13
2018-12-02T05:55:17.091Z,5.12
2018-12-02T05:56:16.355Z,5.12
2018-12-02T05:57:16.618Z,5.12
2018-12-02T05:58:16.876Z,5.12
2018-12-02T05:59:17.139Z,5.14
2018-12-02T06:00:16.419Z,5.14
2018-12-02T06:01:16.475Z,5.16
2018-12-02T06:02:17.666Z,5.16
2018-12-02T06:03:17.011Z,5.17
2018-12-02T06:04:16.276Z,5.19
2018-12-02T06:05:16.557Z,5.17
2018-12-02T06:06:16.828Z,5.20
2018-12-02T06:07:17.088Z,5.20
2018-12-02T06:08:16.348Z,5.23
2018-12-02T06:09:16.607Z,5.23
2018-12-02T06:10:16.898Z,5.22
2018-12-02T06:11:16.943Z,5.24
2018-12-02T06:12:16.220Z,5.22
2018-12-02T06:13:16.477Z,5.24
2018-12-02T06:14:16.739Z,5.24
2018-12-02T06:15:17.022Z,5.24
2018-12-02T06:16:16.288Z,5.23
2018-12-02T06:17:16.558Z,5.22
2018-12-02T06:18:16.825Z,5.24
2018-12-02T06:19:17.092Z,5.27
2018-12-02T06:20:16.380Z,5.28
2018-12-02T06:21:16.398Z,5.28
2018-12-02T06:22:16.664Z,5.27
2018-12-02T06:23:16.939Z,5.28
2018-12-02T06:24:16.201Z,5.28
2018-12-02T06:25:16.497Z,5.31
2018-12-02T06:26:16.815Z,5.31
2018-12-02T06:27:17.076Z,5.30
2018-12-02T06:28:16.343Z,5.28
2018-12-02T06:29:16.666Z,5.30
2018-12-02T06:30:16.967Z,5.28
2018-12-02T06:31:17.012Z,5.30
2018-12-02T06:32:16.280Z,5.30
2018-12-02T06:33:16.548Z,5.30
2018-12-02T06:34:16.815Z,5.30
2018-12-02T06:35:17.098Z,5.28
2018-12-02T06:36:16.393Z,5.27
2018-12-02T06:37:16.664Z,5.30
2018-12-02T06:38:16.940Z,5.31
2018-12-02T06:39:17.208Z,5.33
2018-12-02T06:40:16.495Z,5.33
2018-12-02T06:41:16.539Z,5.31
2018-12-02T06:42:16.791Z,5.33
2018-12-02T06:43:17.063Z,5.30
2018-12-02T06:44:16.328Z,5.33
2018-12-02T06:45:16.609Z,5.34
2018-12-02T06:46:16.882Z,5.35
2018-12-02T06:47:17.153Z,5.35
2018-12-02T06:48:16.421Z,5.34
2018-12-02T06:49:16.706Z,5.35
2018-12-02T06:50:16.968Z,5.35
2018-12-02T06:51:17.040Z,5.38
2018-12-02T06:52:16.296Z,5.34
2018-12-02T06:53:16.569Z,5.35
2018-12-02T06:54:16.825Z,5.37
2018-12-02T06:55:17.094Z,5.38
2018-12-02T06:56:16.352Z,5.35
2018-12-02T06:57:16.617Z,5.37
2018-12-02T06:58:16.894Z,5.37
2018-12-02T06:59:17.161Z,5.33
2018-12-02T07:00:16.451Z,5.34
2018-12-02T07:01:16.504Z,5.33
2018-12-02T07:02:16.768Z,5.31
2018-12-02T07:03:17.044Z,5.33
2018-12-02T07:04:16.315Z,5.33
2018-12-02T07:05:16.604Z,5.33
2018-12-02T07:06:16.869Z,5.33
2018-12-02T07:07:17.146Z,5.35
2018-12-02T07:08:16.402Z,5.33
2018-12-02T07:09:16.675Z,5.31
2018-12-02T07:10:16.949Z,5.31
2018-12-02T07:11:17.013Z,5.30
2018-12-02T07:12:16.280Z,5.31
2018-12-02T07:13:16.552Z,5.30
2018-12-02T07:14:16.824Z,5.31
2018-12-02T07:15:17.090Z,5.33
2018-12-02T07:16:16.362Z,5.31
2018-12-02T07:17:16.631Z,5.31
2018-12-02T07:18:16.893Z,5.33
2018-12-02T07:19:17.155Z,5.33
2018-12-02T07:20:16.428Z,5.31
2018-12-02T07:21:16.487Z,5.31
2018-12-02T07:22:16.753Z,5.33
2018-12-02T07:23:17.021Z,5.33
2018-12-02T07:24:16.283Z,5.33
2018-12-02T07:25:16.554Z,5.30
2018-12-02T07:26:16.822Z,5.33
2018-12-02T07:27:17.355Z,5.33
2018-12-02T07:28:16.618Z,5.31
2018-12-02T07:29:16.895Z,5.31
2018-12-02T07:30:17.164Z,5.33
2018-12-02T07:31:17.194Z,5.31
2018-12-02T07:32:16.467Z,5.31
2018-12-02T07:33:16.731Z,5.31
2018-12-02T07:34:16.995Z,5.31
2018-12-02T07:35:16.263Z,5.34
2018-12-02T07:36:16.536Z,5.33
2018-12-02T07:37:16.797Z,5.33
2018-12-02T07:38:17.064Z,5.31
2018-12-02T07:39:16.338Z,5.33
2018-12-02T07:40:16.616Z,5.34
2018-12-02T07:41:16.660Z,5.34
2018-12-02T07:42:16.915Z,5.37
2018-12-02T07:43:17.187Z,5.37
2018-12-02T07:44:16.452Z,5.34
2018-12-02T07:45:16.718Z,5.35
2018-12-02T07:46:16.980Z,5.37
2018-12-02T07:47:16.238Z,5.41
2018-12-02T07:48:16.503Z,5.35
2018-12-02T07:49:16.760Z,5.38
2018-12-02T07:50:17.045Z,5.37
2018-12-02T07:51:17.063Z,5.38
2018-12-02T07:52:16.337Z,5.40
2018-12-02T07:53:16.607Z,5.37
2018-12-02T07:54:16.883Z,5.38
2018-12-02T07:55:17.152Z,5.40
2018-12-02T07:56:16.421Z,5.40
2018-12-02T07:57:16.684Z,5.40
2018-12-02T07:58:16.955Z,5.38
2018-12-02T07:59:16.219Z,5.35
2018-12-02T08:00:16.513Z,5.41
2018-12-02T08:01:16.533Z,5.37
2018-12-02T08:02:16.799Z,5.38
2018-12-02T08:03:17.068Z,5.40
2018-12-02T08:04:16.332Z,5.38
2018-12-02T08:05:16.605Z,5.41
2018-12-02T08:06:16.880Z,5.40
2018-12-02T08:07:17.147Z,5.40
2018-12-02T08:08:16.414Z,5.43
2018-12-02T08:09:16.689Z,5.44
2018-12-02T08:10:16.956Z,5.43
2018-12-02T08:11:17.005Z,5.40
2018-12-02T08:12:16.280Z,5.44
2018-12-02T08:13:16.552Z,5.44
2018-12-02T08:14:16.813Z,5.44
2018-12-02T08:15:17.081Z,5.43
2018-12-02T08:16:16.343Z,5.44
2018-12-02T08:17:16.608Z,5.44
2018-12-02T08:18:16.874Z,5.43
2018-12-02T08:19:17.142Z,5.47
2018-12-02T08:20:16.424Z,5.45
2018-12-02T08:21:16.466Z,5.47
2018-12-02T08:22:16.720Z,5.44
2018-12-02T08:23:16.978Z,5.47
2018-12-02T08:24:16.570Z,5.48
2018-12-02T08:25:16.832Z,5.47
2018-12-02T08:26:17.100Z,5.48
2018-12-02T08:27:16.363Z,5.48
2018-12-02T08:28:16.641Z,5.50
2018-12-02T08:29:16.906Z,5.50
2018-12-02T08:30:17.182Z,5.51
2018-12-02T08:31:16.224Z,5.51
2018-12-02T08:32:16.493Z,5.48
2018-12-02T08:33:16.761Z,5.54
2018-12-02T08:34:17.060Z,5.57
2018-12-02T08:35:16.319Z,5.52
2018-12-02T08:36:16.590Z,5.57
2018-12-02T08:37:16.869Z,5.55
2018-12-02T08:38:17.128Z,5.58
2018-12-02T08:39:16.395Z,5.58
2018-12-02T08:40:16.662Z,5.58
2018-12-02T08:41:16.735Z,5.61
2018-12-02T08:42:17.002Z,5.61
2018-12-02T08:43:16.263Z,5.62
2018-12-02T08:44:16.524Z,5.67
2018-12-02T08:45:16.797Z,5.65
2018-12-02T08:46:17.077Z,5.65
2018-12-02T08:47:16.340Z,5.64
2018-12-02T08:48:16.601Z,5.68
2018-12-02T08:49:16.871Z,5.68
2018-12-02T08:50:17.152Z,5.68
2018-12-02T08:51:16.220Z,5.68
2018-12-02T08:52:16.501Z,5.68
2018-12-02T08:53:16.764Z,5.70
2018-12-02T08:54:17.033Z,5.71
2018-12-02T08:55:16.328Z,5.68
2018-12-02T08:56:16.607Z,5.72
2018-12-02T08:57:16.874Z,5.72
2018-12-02T08:58:17.189Z,5.72
2018-12-02T08:59:16.462Z,5.74
2018-12-02T09:00:16.746Z,5.74
2018-12-02T09:01:16.762Z,5.77
2018-12-02T09:02:17.030Z,5.77
2018-12-02T09:03:16.311Z,5.78
2018-12-02T09:04:16.585Z,5.79
2018-12-02T09:05:16.851Z,5.78
2018-12-02T09:06:17.518Z,5.79
2018-12-02T09:07:16.785Z,5.82
2018-12-02T09:08:17.049Z,5.82
2018-12-02T09:09:16.312Z,5.84
2018-12-02T09:10:16.589Z,5.85
2018-12-02T09:11:16.649Z,5.88
2018-12-02T09:12:16.908Z,5.88
2018-12-02T09:13:17.169Z,5.91
2018-12-02T09:14:16.435Z,5.91
2018-12-02T09:15:16.700Z,5.95
2018-12-02T09:16:16.966Z,5.93
2018-12-02T09:17:16.238Z,5.95
2018-12-02T09:18:16.504Z,5.98
2018-12-02T09:19:16.767Z,5.98
2018-12-02T09:20:17.048Z,5.98
2018-12-02T09:21:17.100Z,6.05
2018-12-02T09:22:16.376Z,6.03
2018-12-02T09:23:16.630Z,6.08
2018-12-02T09:24:16.883Z,6.09
2018-12-02T09:25:17.162Z,6.12
2018-12-02T09:26:16.423Z,6.12
2018-12-02T09:27:16.688Z,6.16
2018-12-02T09:28:16.969Z,6.13
2018-12-02T09:29:16.239Z,6.14
2018-12-02T09:30:16.539Z,6.14
2018-12-02T09:31:16.597Z,6.19
2018-12-02T09:32:16.956Z,6.21
2018-12-02T09:33:16.218Z,6.20
2018-12-02T09:34:16.478Z,6.23
2018-12-02T09:35:16.748Z,6.27
2018-12-02T09:36:17.018Z,6.24
2018-12-02T09:37:16.282Z,6.31
2018-12-02T09:38:16.553Z,6.29
2018-12-02T09:39:18.402Z,6.30
2018-12-02T09:40:16.838Z,6.29
2018-12-02T09:41:16.895Z,6.31
2018-12-02T09:42:17.167Z,6.33
2018-12-02T09:43:16.437Z,6.36
2018-12-02T09:44:16.718Z,6.38
2018-12-02T09:45:16.980Z,6.41
2018-12-02T09:46:16.247Z,6.40
2018-12-02T09:47:16.530Z,6.37
2018-12-02T09:48:16.808Z,6.43
2018-12-02T09:49:17.097Z,6.38
2018-12-02T09:50:16.368Z,6.43
2018-12-02T09:51:16.399Z,6.40
2018-12-02T09:52:16.665Z,6.47
2018-12-02T09:53:16.936Z,6.47
2018-12-02T09:54:17.193Z,6.48
2018-12-02T09:55:16.457Z,6.45
2018-12-02T09:56:16.715Z,6.47
2018-12-02T09:57:16.990Z,6.49
2018-12-02T09:58:16.257Z,6.54
2018-12-02T09:59:16.528Z,6.51
2018-12-02T10:00:16.812Z,6.52
2018-12-02T10:01:16.839Z,6.57
2018-12-02T10:02:17.104Z,6.57
2018-12-02T10:03:16.360Z,6.63
2018-12-02T10:04:16.627Z,6.64
2018-12-02T10:05:16.892Z,6.64
2018-12-02T10:06:17.159Z,6.67
2018-12-02T10:07:16.431Z,6.68
2018-12-02T10:08:16.692Z,6.69
2018-12-02T10:09:16.957Z,6.72
2018-12-02T10:10:22.098Z,6.71
2018-12-02T10:11:16.275Z,6.74
2018-12-02T10:12:16.538Z,6.72
2018-12-02T10:13:16.801Z,6.72
2018-12-02T10:14:17.434Z,6.71
2018-12-02T10:15:16.703Z,6.75
2018-12-02T10:16:17.337Z,6.78
2018-12-02T10:17:16.650Z,6.81
2018-12-02T10:18:16.939Z,6.85
2018-12-02T10:19:16.215Z,6.86
2018-12-02T10:20:16.510Z,6.91
2018-12-02T10:21:16.544Z,6.94
2018-12-02T10:22:16.807Z,6.91
2018-12-02T10:23:17.072Z,6.88
2018-12-02T10:24:16.329Z,6.88
2018-12-02T10:25:16.581Z,6.91
2018-12-02T10:26:16.851Z,6.92
2018-12-02T10:27:17.123Z,6.91
2018-12-02T10:28:16.387Z,6.94
2018-12-02T10:29:16.645Z,6.96
2018-12-02T10:30:16.919Z,6.88
2018-12-02T10:31:16.989Z,6.88
2018-12-02T10:32:16.245Z,6.89
2018-12-02T10:33:16.533Z,6.91
2018-12-02T10:34:17.119Z,6.92
2018-12-02T10:35:16.400Z,6.94
2018-12-02T10:36:16.677Z,6.94
2018-12-02T10:37:16.947Z,6.99
2018-12-02T10:38:16.214Z,6.95
2018-12-02T10:39:16.476Z,6.96
2018-12-02T10:40:16.737Z,7.00
2018-12-02T10:41:16.805Z,6.99
2018-12-02T10:42:17.063Z,7.06
2018-12-02T10:43:16.331Z,7.15
2018-12-02T10:44:16.595Z,7.10
2018-12-02T10:45:16.879Z,7.10
2018-12-02T10:46:17.157Z,7.10
2018-12-02T10:47:16.428Z,7.10
2018-12-02T10:48:16.699Z,7.12
2018-12-02T10:49:16.952Z,7.13
2018-12-02T10:50:16.251Z,7.16
2018-12-02T10:51:16.283Z,7.12
2018-12-02T10:52:16.547Z,7.12
2018-12-02T10:53:16.815Z,7.15
2018-12-02T10:54:17.085Z,7.16
2018-12-02T10:55:16.354Z,7.17
2018-12-02T10:56:16.625Z,7.12
2018-12-02T10:57:16.907Z,7.16
2018-12-02T10:58:17.184Z,7.13
2018-12-02T10:59:16.464Z,7.13
2018-12-02T11:00:16.743Z,7.13
2018-12-02T11:01:16.795Z,7.12
2018-12-02T11:02:17.059Z,7.13
2018-12-02T11:03:16.316Z,7.10
2018-12-02T11:04:16.585Z,7.10
2018-12-02T11:05:16.854Z,7.15
2018-12-02T11:06:17.110Z,7.19
2018-12-02T11:07:16.377Z,7.17
2018-12-02T11:08:16.650Z,7.20
2018-12-02T11:09:16.913Z,7.15
2018-12-02T11:10:17.207Z,7.16
2018-12-02T11:11:16.240Z,7.17
2018-12-02T11:12:16.519Z,7.23
2018-12-02T11:13:16.792Z,7.26
2018-12-02T11:14:17.058Z,7.30
2018-12-02T11:15:16.324Z,7.30
2018-12-02T11:16:16.583Z,7.27
2018-12-02T11:17:16.853Z,7.33
2018-12-02T11:18:17.143Z,7.35
2018-12-02T11:19:16.398Z,7.38
2018-12-02T11:20:16.677Z,7.40
2018-12-02T11:21:16.720Z,7.45
2018-12-02T11:22:16.983Z,7.47
2018-12-02T11:23:16.246Z,7.51
2018-12-02T11:24:16.509Z,7.44
2018-12-02T11:25:16.771Z,7.47
2018-12-02T11:26:17.047Z,7.53
2018-12-02T11:27:16.315Z,7.58
2018-12-02T11:28:16.580Z,7.59
2018-12-02T11:29:16.851Z,7.62
2018-12-02T11:30:17.147Z,7.58
2018-12-02T11:31:17.182Z,7.54
2018-12-02T11:32:16.449Z,7.58
2018-12-02T11:33:16.714Z,7.58
2018-12-02T11:34:16.979Z,7.59
2018-12-02T11:35:16.424Z,7.55
2018-12-02T11:36:16.694Z,7.57
2018-12-02T11:37:16.959Z,7.58
2018-12-02T11:38:16.223Z,7.58
2018-12-02T11:39:16.498Z,7.62
2018-12-02T11:40:16.783Z,7.59
2018-12-02T11:41:17.375Z,7.61
2018-12-02T11:42:16.676Z,7.59
2018-12-02T11:43:16.948Z,7.61
2018-12-02T11:44:16.212Z,7.59
2018-12-02T11:45:16.477Z,7.59
2018-12-02T11:46:16.745Z,7.58
2018-12-02T11:47:17.014Z,7.59
2018-12-02T11:48:16.275Z,7.65
2018-12-02T11:49:16.544Z,7.64
2018-12-02T11:50:16.810Z,7.66
2018-12-02T11:51:16.869Z,7.66
2018-12-02T11:52:17.130Z,7.66
2018-12-02T11:53:16.399Z,7.66
2018-12-02T11:54:16.663Z,7.65
2018-12-02T11:55:16.938Z,7.65
2018-12-02T11:56:16.215Z,7.65
2018-12-02T11:57:16.530Z,7.64
2018-12-02T11:58:16.797Z,7.68
2018-12-02T11:59:17.070Z,7.66
2018-12-02T12:00:16.350Z,7.68
2018-12-02T12:01:16.399Z,7.69
2018-12-02T12:02:16.657Z,7.69
2018-12-02T12:03:16.911Z,7.69
2018-12-02T12:04:17.178Z,7.69
2018-12-02T12:05:16.438Z,7.69
2018-12-02T12:06:16.698Z,7.69
2018-12-02T12:07:16.958Z,7.66
2018-12-02T12:08:16.222Z,7.71
2018-12-02T12:09:16.509Z,7.71
2018-12-02T12:10:16.783Z,7.71
2018-12-02T12:11:16.819Z,7.71
2018-12-02T12:12:17.090Z,7.72
2018-12-02T12:13:16.356Z,7.71
2018-12-02T12:14:16.627Z,7.75
2018-12-02T12:15:16.888Z,7.75
2018-12-02T12:16:17.179Z,7.77
2018-12-02T12:17:16.450Z,7.72
2018-12-02T12:18:16.722Z,7.75
2018-12-02T12:19:16.982Z,7.80
2018-12-02T12:20:16.260Z,7.78
2018-12-02T12:21:16.299Z,7.77
2018-12-02T12:22:16.567Z,7.78
2018-12-02T12:23:16.833Z,7.80
2018-12-02T12:24:17.108Z,7.78
2018-12-02T12:25:16.369Z,7.82
2018-12-02T12:26:16.635Z,7.82
2018-12-02T12:27:16.905Z,7.82
2018-12-02T12:28:17.163Z,7.82
2018-12-02T12:29:16.418Z,7.81
2018-12-02T12:30:16.690Z,7.82
2018-12-02T12:31:16.739Z,7.78
2018-12-02T12:32:17.064Z,7.81
2018-12-02T12:33:16.327Z,7.82
2018-12-02T12:34:16.598Z,7.81
2018-12-02T12:35:16.863Z,7.82
2018-12-02T12:36:17.144Z,7.82
2018-12-02T12:37:16.414Z,7.82
2018-12-02T12:38:16.691Z,7.85
2018-12-02T12:39:16.955Z,7.84
2018-12-02T12:40:16.236Z,7.84
2018-12-02T12:41:16.289Z,7.84
2018-12-02T12:42:16.553Z,7.85
2018-12-02T12:43:16.810Z,7.84
2018-12-02T12:44:17.077Z,7.81
2018-12-02T12:45:16.351Z,7.85
2018-12-02T12:46:16.619Z,7.85
2018-12-02T12:47:16.883Z,7.85
2018-12-02T12:48:17.154Z,7.86
2018-12-02T12:49:16.415Z,7.82
2018-12-02T12:50:16.696Z,7.81
2018-12-02T12:51:16.755Z,7.84
2018-12-02T12:52:17.019Z,7.85
2018-12-02T12:53:16.292Z,7.82
2018-12-02T12:54:16.560Z,7.78
2018-12-02T12:55:16.812Z,7.84
2018-12-02T12:56:17.099Z,7.82
2018-12-02T12:57:16.368Z,7.84
2018-12-02T12:58:16.636Z,7.84
2018-12-02T12:59:16.900Z,7.84
2018-12-02T13:00:17.187Z,7.85
2018-12-02T13:01:16.215Z,7.86
2018-12-02T13:02:16.484Z,7.86
2018-12-02T13:03:16.765Z,7.85
2018-12-02T13:04:17.031Z,7.88
2018-12-02T13:05:16.299Z,7.86
2018-12-02T13:06:16.595Z,7.86
2018-12-02T13:07:16.849Z,7.86
2018-12-02T13:08:17.115Z,7.88
2018-12-02T13:09:16.372Z,7.86
2018-12-02T13:10:16.654Z,7.86
2018-12-02T13:11:16.696Z,7.86
2018-12-02T13:12:16.956Z,7.89
2018-12-02T13:13:16.215Z,7.92
2018-12-02T13:14:16.480Z,7.89
2018-12-02T13:15:16.751Z,7.89
2018-12-02T13:16:17.012Z,7.91
2018-12-02T13:17:16.352Z,7.92
2018-12-02T13:18:16.613Z,7.91